createdAt,value
2023-03-28T00:01:51.276Z,0.52
2023-03-28T00:04:22.950Z,0.51
2023-03-28T00:06:52.148Z,0.47
2023-03-28T00:09:22.631Z,0.48
2023-03-28T00:11:50.301Z,0.50
2023-03-28T00:14:17.757Z,0.49
2023-03-28T00:16:48.121Z,0.54
2023-03-28T00:19:18.423Z,0.48
2023-03-28T00:21:48.711Z,0.55
2023-03-28T00:24:21.555Z,0.54
2023-03-28T00:26:54.503Z,0.55
2023-03-28T00:29:23.310Z,0.57
2023-03-28T00:31:52.139Z,0.57
2023-03-28T00:34:19.698Z,0.54
2023-03-28T00:36:47.496Z,0.58
2023-03-28T00:39:15.487Z,0.50
2023-03-28T00:41:44.622Z,0.48
2023-03-28T00:44:57.122Z,0.50
2023-03-28T00:47:28.053Z,0.53
2023-03-28T00:50:03.525Z,0.55
2023-03-28T00:52:40.104Z,0.58
2023-03-28T00:55:15.666Z,0.57
2023-03-28T00:57:46.529Z,0.57
2023-03-28T01:00:17.125Z,0.51
2023-03-28T01:02:51.589Z,0.53
2023-03-28T01:05:23.767Z,0.53
2023-03-28T01:07:56.036Z,0.51
2023-03-28T01:10:24.648Z,0.53
2023-03-28T01:12:55.670Z,0.51
2023-03-28T01:15:23.823Z,0.52
2023-03-28T01:18:02.877Z,0.55
2023-03-28T01:20:32.742Z,0.44
2023-03-28T01:23:32.696Z,0.48
2023-03-28T01:26:39.509Z,0.48
2023-03-28T01:29:36.492Z,0.50
2023-03-28T01:32:54.643Z,0.47
2023-03-28T01:35:50.793Z,0.49
2023-03-28T01:38:34.228Z,0.48
2023-03-28T01:41:29.424Z,0.52
2023-03-28T01:44:46.112Z,0.49
2023-03-28T01:47:51.686Z,0.51
2023-03-28T01:50:26.668Z,0.56
2023-03-28T01:53:41.666Z,0.50
2023-03-28T01:56:24.244Z,0.53
2023-03-28T01:59:18.179Z,0.56
2023-03-28T02:02:19.923Z,0.58
2023-03-28T02:04:50.359Z,0.59
2023-03-28T02:07:22.012Z,0.63
2023-03-28T02:10:26.472Z,0.58
2023-03-28T02:13:00.131Z,0.60
2023-03-28T02:16:00.925Z,0.60
2023-03-28T02:18:45.915Z,0.53
2023-03-28T02:21:32.121Z,0.51
2023-03-28T02:24:23.308Z,0.45
2023-03-28T02:27:08.830Z,0.51
2023-03-28T02:29:56.758Z,0.48
2023-03-28T02:32:38.006Z,0.46
2023-03-28T02:35:07.365Z,0.51
2023-03-28T02:37:49.930Z,0.53
2023-03-28T02:40:46.723Z,0.51
2023-03-28T02:43:20.342Z,0.49
2023-03-28T02:46:13.959Z,0.58
2023-03-28T02:49:00.523Z,0.57
2023-03-28T02:51:57.100Z,0.49
2023-03-28T02:54:42.034Z,0.42
2023-03-28T02:57:46.611Z,0.33
2023-03-28T03:00:18.779Z,0.34
2023-03-28T03:02:49.557Z,0.28
2023-03-28T03:05:20.412Z,0.29
2023-03-28T03:07:50.042Z,0.34
2023-03-28T03:10:18.380Z,0.33
2023-03-28T03:12:47.838Z,0.30
2023-03-28T03:15:17.263Z,0.20
2023-03-28T03:17:47.726Z,0.12
2023-03-28T03:20:16.980Z,-0.03
2023-03-28T03:22:44.662Z,-0.06
2023-03-28T03:25:14.536Z,-0.13
2023-03-28T03:27:54.394Z,-0.12
2023-03-28T03:30:22.061Z,-0.13
2023-03-28T03:33:10.433Z,-0.22
2023-03-28T03:35:42.388Z,-0.25
2023-03-28T03:38:09.979Z,-0.27
2023-03-28T03:40:37.431Z,-0.22
2023-03-28T03:43:05.109Z,-0.24
2023-03-28T03:45:35.139Z,-0.24
2023-03-28T03:48:03.480Z,-0.34
2023-03-28T03:50:30.960Z,-0.51
2023-03-28T03:52:59.139Z,-0.91
2023-03-28T03:55:34.489Z,-1.06
2023-03-28T03:58:03.255Z,-1.19
2023-03-28T04:00:32.004Z,-1.22
2023-03-28T04:02:59.740Z,-1.26
2023-03-28T04:05:28.587Z,-1.19
2023-03-28T04:08:02.081Z,-1.17
2023-03-28T04:10:42.508Z,-1.19
2023-03-28T04:13:12.935Z,-1.19
2023-03-28T04:15:42.295Z,-1.13
2023-03-28T04:18:29.895Z,-1.07
2023-03-28T04:21:01.825Z,-1.07
2023-03-28T04:23:43.874Z,-1.00
2023-03-28T04:26:50.328Z,-1.10
2023-03-28T04:29:25.408Z,-1.00
2023-03-28T04:32:13.054Z,-1.02
2023-03-28T04:35:03.869Z,-0.99
2023-03-28T04:37:31.807Z,-0.99
2023-03-28T04:40:16.271Z,-0.98
2023-03-28T04:43:07.159Z,-1.01
2023-03-28T04:45:38.782Z,-0.95
2023-03-28T04:48:15.072Z,-0.93
2023-03-28T04:50:43.371Z,-0.87
2023-03-28T04:53:12.449Z,-0.79
2023-03-28T04:55:50.829Z,-0.78
2023-03-28T04:58:24.002Z,-0.79
2023-03-28T05:00:54.098Z,-0.76
2023-03-28T05:03:43.171Z,-0.72
2023-03-28T05:06:11.817Z,-0.72
2023-03-28T05:08:39.332Z,-0.75
2023-03-28T05:11:07.081Z,-0.75
2023-03-28T05:13:37.759Z,-0.77
2023-03-28T05:16:12.250Z,-0.69
2023-03-28T05:19:04.572Z,-0.69
2023-03-28T05:21:58.236Z,-0.63
2023-03-28T05:24:26.036Z,-0.54
2023-03-28T05:26:54.685Z,-0.51
2023-03-28T05:29:24.301Z,-0.57
2023-03-28T05:31:53.094Z,-0.52
2023-03-28T05:34:30.497Z,-0.58
2023-03-28T05:36:58.499Z,-0.57
2023-03-28T05:39:29.272Z,-0.51
2023-03-28T05:42:03.638Z,-0.49
2023-03-28T05:44:31.270Z,-0.39
2023-03-28T05:47:19.196Z,-0.42
2023-03-28T05:49:46.787Z,-0.49
2023-03-28T05:52:14.518Z,-0.42
2023-03-28T05:54:42.115Z,-0.48
2023-03-28T05:57:19.687Z,-0.43
2023-03-28T05:59:47.218Z,-0.38
2023-03-28T06:02:20.377Z,-0.32
2023-03-28T06:04:48.842Z,-0.25
2023-03-28T06:07:17.595Z,-0.27
2023-03-28T06:09:47.644Z,-0.18
2023-03-28T06:12:16.235Z,-0.20
2023-03-28T06:14:49.850Z,-0.13
2023-03-28T06:17:25.230Z,-0.10
2023-03-28T06:19:56.913Z,0.02
2023-03-28T06:22:24.838Z,0.01
2023-03-28T06:24:57.906Z,0.24
2023-03-28T06:27:28.177Z,0.48
2023-03-28T06:29:56.136Z,0.70
2023-03-28T06:32:23.657Z,1.04
2023-03-28T06:34:51.255Z,1.21
2023-03-28T06:37:19.566Z,1.27
2023-03-28T06:39:55.587Z,1.01
2023-03-28T06:42:23.103Z,0.96
2023-03-28T06:44:58.271Z,1.01
2023-03-28T06:47:25.969Z,1.33
2023-03-28T06:49:53.476Z,1.10
2023-03-28T06:52:29.693Z,1.55
2023-03-28T06:54:59.206Z,2.36
2023-03-28T06:57:26.878Z,2.62
2023-03-28T07:00:07.494Z,2.36
2023-03-28T07:02:54.997Z,1.92
2023-03-28T07:05:22.946Z,2.29
2023-03-28T07:07:50.713Z,2.41
2023-03-28T07:10:18.394Z,1.82
2023-03-28T07:12:46.010Z,1.47
2023-03-28T07:15:14.093Z,1.17
2023-03-28T07:17:41.571Z,1.06
2023-03-28T07:20:09.889Z,1.03
2023-03-28T07:22:37.342Z,0.83
2023-03-28T07:25:05.558Z,0.72
2023-03-28T07:27:33.102Z,0.87
2023-03-28T07:30:00.591Z,1.11
2023-03-28T07:32:38.681Z,1.06
2023-03-28T07:35:15.131Z,1.16
2023-03-28T07:37:48.521Z,1.72
2023-03-28T07:40:32.569Z,2.70
2023-03-28T07:43:00.561Z,2.32
2023-03-28T07:45:28.045Z,2.38
2023-03-28T07:47:55.697Z,2.04
2023-03-28T07:50:24.888Z,2.20
2023-03-28T07:52:57.808Z,2.48
2023-03-28T07:55:28.045Z,2.67
2023-03-28T07:57:55.520Z,3.35
2023-03-28T08:00:35.061Z,3.07
2023-03-28T08:03:23.780Z,2.78
2023-03-28T08:05:52.143Z,2.68
2023-03-28T08:08:21.984Z,3.40
2023-03-28T08:11:02.717Z,3.66
2023-03-28T08:13:30.343Z,3.25
2023-03-28T08:16:04.094Z,2.52
2023-03-28T08:18:31.728Z,2.20
2023-03-28T08:21:03.150Z,2.09
2023-03-28T08:23:33.543Z,2.04
2023-03-28T08:26:28.267Z,2.40
2023-03-28T08:29:01.097Z,1.93
2023-03-28T08:31:30.023Z,1.66
2023-03-28T08:34:04.100Z,2.18
2023-03-28T08:36:37.073Z,3.03
2023-03-28T08:41:46.277Z,3.68
2023-03-28T08:44:40.636Z,2.83
2023-03-28T08:47:27.203Z,2.95
2023-03-28T08:50:10.253Z,2.41
2023-03-28T08:52:40.798Z,2.76
2023-03-28T08:55:24.273Z,2.76
2023-03-28T08:57:54.959Z,2.80
2023-03-28T09:00:26.493Z,2.96
2023-03-28T09:02:55.220Z,3.14
2023-03-28T09:05:35.863Z,3.83
2023-03-28T09:08:46.066Z,3.71
2023-03-28T09:11:34.841Z,4.05
2023-03-28T09:14:24.533Z,4.45
2023-03-28T09:17:16.837Z,3.72
2023-03-28T09:20:11.537Z,3.84
2023-03-28T09:23:30.216Z,3.98
2023-03-28T09:26:19.181Z,3.74
2023-03-28T09:29:03.064Z,3.71
2023-03-28T09:31:41.111Z,3.88
2023-03-28T09:34:20.789Z,3.15
2023-03-28T09:39:40.496Z,3.77
2023-03-28T09:42:19.470Z,3.35
2023-03-28T09:45:21.542Z,2.97
2023-03-28T09:47:55.201Z,2.57
2023-03-28T09:50:27.340Z,3.38
2023-03-28T09:52:59.971Z,3.47
2023-03-28T09:55:31.144Z,3.24
2023-03-28T09:58:08.559Z,3.36
2023-03-28T10:00:55.478Z,4.08
2023-03-28T10:03:54.454Z,4.52
2023-03-28T10:06:39.899Z,4.24
2023-03-28T10:09:13.560Z,3.81
2023-03-28T10:11:56.589Z,3.76
2023-03-28T10:14:46.979Z,3.75
2023-03-28T10:17:37.969Z,3.63
2023-03-28T10:20:24.051Z,3.71
2023-03-28T10:22:57.067Z,4.16
2023-03-28T10:25:35.144Z,3.58
2023-03-28T10:28:05.469Z,3.43
2023-03-28T10:30:37.014Z,3.44
2023-03-28T10:33:10.169Z,3.63
2023-03-28T10:35:57.612Z,4.32
2023-03-28T10:38:31.640Z,4.53
2023-03-28T10:41:26.149Z,4.45
2023-03-28T10:44:18.813Z,4.32
2023-03-28T10:47:16.269Z,3.90
2023-03-28T10:49:55.713Z,4.11
2023-03-28T10:52:43.843Z,3.81
2023-03-28T10:55:27.515Z,3.41
2023-03-28T10:58:37.873Z,3.13
2023-03-28T11:01:20.679Z,3.90
2023-03-28T11:03:55.360Z,4.34
2023-03-28T11:06:30.963Z,4.28
2023-03-28T11:09:09.500Z,4.08
2023-03-28T11:12:28.325Z,3.65
2023-03-28T11:15:00.033Z,3.77
2023-03-28T11:18:02.506Z,3.89
2023-03-28T11:21:02.358Z,4.26
2023-03-28T11:23:34.966Z,4.27
2023-03-28T11:26:34.856Z,4.82
2023-03-28T11:29:42.600Z,5.54
2023-03-28T11:33:09.764Z,5.37
2023-03-28T11:35:37.420Z,5.81
2023-03-28T11:38:26.982Z,6.27
2023-03-28T11:41:04.530Z,6.79
2023-03-28T11:44:16.978Z,6.67
2023-03-28T11:46:59.153Z,6.42
2023-03-28T11:49:42.992Z,6.45
2023-03-28T11:52:42.669Z,6.64
2023-03-28T11:55:26.541Z,6.66
2023-03-28T11:58:23.714Z,6.37
2023-03-28T12:01:11.402Z,6.45
2023-03-28T12:04:03.963Z,6.20
2023-03-28T12:06:59.513Z,6.14
2023-03-28T12:10:06.829Z,6.20
2023-03-28T12:12:50.034Z,6.42
2023-03-28T12:15:21.947Z,5.72
2023-03-28T12:18:02.772Z,5.57
2023-03-28T12:20:42.486Z,4.98
2023-03-28T12:23:32.100Z,5.47
2023-03-28T12:26:55.885Z,5.46
2023-03-28T12:29:37.408Z,5.50
2023-03-28T12:32:31.712Z,5.55
2023-03-28T12:35:18.725Z,5.43
2023-03-28T12:38:12.395Z,5.00
2023-03-28T12:40:49.043Z,4.84
2023-03-28T12:43:21.726Z,4.94
2023-03-28T12:45:56.605Z,4.78
2023-03-28T12:48:31.180Z,5.36
2023-03-28T12:51:06.137Z,6.13
2023-03-28T12:53:34.815Z,6.54
2023-03-28T12:56:03.724Z,6.53
2023-03-28T12:58:36.295Z,6.42
2023-03-28T13:01:33.481Z,6.14
2023-03-28T13:04:03.861Z,5.90
2023-03-28T13:07:09.804Z,5.35
2023-03-28T13:10:41.937Z,5.97
2023-03-28T13:13:41.557Z,5.64
2023-03-28T13:16:46.689Z,5.52
2023-03-28T13:19:18.410Z,5.05
2023-03-28T13:22:24.458Z,5.07
2023-03-28T13:24:52.128Z,5.07
2023-03-28T13:27:33.815Z,4.82
2023-03-28T13:30:24.625Z,4.81
2023-03-28T13:33:01.038Z,4.93
2023-03-28T13:36:00.636Z,5.04
2023-03-28T13:38:28.259Z,4.80
2023-03-28T13:41:03.072Z,4.64
2023-03-28T13:43:33.892Z,4.66
2023-03-28T13:46:25.680Z,5.13
2023-03-28T13:49:13.193Z,5.55
2023-03-28T13:51:50.175Z,5.36
2023-03-28T13:54:18.204Z,5.35
2023-03-28T13:56:48.082Z,5.31
2023-03-28T13:59:23.229Z,5.17
2023-03-28T14:01:59.985Z,5.41
2023-03-28T14:04:35.164Z,5.44
2023-03-28T14:07:02.954Z,5.34
2023-03-28T14:09:34.657Z,5.51
2023-03-28T14:12:14.008Z,5.60
2023-03-28T14:14:50.436Z,6.14
2023-03-28T14:17:32.712Z,6.73
2023-03-28T14:20:08.199Z,6.71
2023-03-28T14:22:49.382Z,6.40
2023-03-28T14:25:27.656Z,6.23
2023-03-28T14:27:57.080Z,6.17
2023-03-28T14:30:30.167Z,5.96
2023-03-28T14:33:14.546Z,5.87
2023-03-28T14:35:43.386Z,5.73
2023-03-28T14:38:26.739Z,5.69
2023-03-28T14:40:55.114Z,5.32
2023-03-28T14:43:31.887Z,5.42
2023-03-28T14:46:04.429Z,5.21
2023-03-28T14:48:32.591Z,5.14
2023-03-28T14:51:04.162Z,5.14
2023-03-28T14:53:42.218Z,5.31
2023-03-28T14:56:14.049Z,5.25
2023-03-28T14:58:44.337Z,5.48
2023-03-28T15:01:22.992Z,5.79
2023-03-28T15:04:08.350Z,5.54
2023-03-28T15:06:38.801Z,5.38
2023-03-28T15:09:19.382Z,5.55
2023-03-28T15:11:47.060Z,5.59
2023-03-28T15:14:22.491Z,5.83
2023-03-28T15:16:50.354Z,6.07
2023-03-28T15:19:22.515Z,6.16
2023-03-28T15:21:55.262Z,6.08
2023-03-28T15:24:27.946Z,6.16
2023-03-28T15:26:59.541Z,6.05
2023-03-28T15:29:30.070Z,6.01
2023-03-28T15:32:05.306Z,5.91
2023-03-28T15:34:43.588Z,5.48
2023-03-28T15:37:19.223Z,5.29
2023-03-28T15:39:50.791Z,5.31
2023-03-28T15:42:21.260Z,5.06
2023-03-28T15:44:57.821Z,4.87
2023-03-28T15:47:30.385Z,4.77
2023-03-28T15:50:05.000Z,4.75
2023-03-28T15:52:34.503Z,4.87
2023-03-28T15:55:03.385Z,4.96
2023-03-28T15:57:31.658Z,4.89
2023-03-28T16:00:01.135Z,4.89
2023-03-28T16:02:32.287Z,4.76
2023-03-28T16:05:23.051Z,4.63
2023-03-28T16:07:50.906Z,4.58
2023-03-28T16:10:24.507Z,4.58
2023-03-28T16:13:21.277Z,4.43
2023-03-28T16:16:05.949Z,4.33
2023-03-28T16:18:52.122Z,4.27
2023-03-28T16:21:19.978Z,4.17
2023-03-28T16:23:47.639Z,4.10
2023-03-28T16:26:15.679Z,4.05
2023-03-28T16:28:43.217Z,3.97
2023-03-28T16:31:14.926Z,3.90
2023-03-28T16:33:42.510Z,3.82
2023-03-28T16:36:11.996Z,3.81
2023-03-28T16:38:39.670Z,3.75
2023-03-28T16:41:07.508Z,3.71
2023-03-28T16:43:35.254Z,3.60
2023-03-28T16:46:03.188Z,3.58
2023-03-28T16:48:32.490Z,3.50
2023-03-28T16:51:05.395Z,3.47
2023-03-28T16:53:37.463Z,3.34
2023-03-28T16:56:12.204Z,3.21
2023-03-28T16:58:39.855Z,3.16
2023-03-28T17:01:10.806Z,3.03
2023-03-28T17:03:38.663Z,2.97
2023-03-28T17:06:09.637Z,2.96
2023-03-28T17:08:38.060Z,2.93
2023-03-28T17:11:08.987Z,2.85
2023-03-28T17:13:37.726Z,2.82
2023-03-28T17:16:07.903Z,2.80
2023-03-28T17:18:35.987Z,2.74
2023-03-28T17:21:12.524Z,2.70
2023-03-28T17:23:42.066Z,2.64
2023-03-28T17:26:12.304Z,2.60
2023-03-28T17:28:42.279Z,2.51
2023-03-28T17:31:13.345Z,2.46
2023-03-28T17:33:41.155Z,2.41
2023-03-28T17:36:24.982Z,2.38
2023-03-28T17:38:54.990Z,2.38
2023-03-28T17:41:23.814Z,2.32
2023-03-28T17:43:52.784Z,2.27
2023-03-28T17:46:21.511Z,2.22
2023-03-28T17:48:49.673Z,2.15
2023-03-28T17:51:17.713Z,2.11
2023-03-28T17:53:47.142Z,2.07
2023-03-28T17:56:16.404Z,2.05
2023-03-28T17:58:44.677Z,2.00
2023-03-28T18:01:15.866Z,1.94
2023-03-28T18:03:44.462Z,1.88
2023-03-28T18:06:33.719Z,1.79
2023-03-28T18:09:01.268Z,1.75
2023-03-28T18:11:28.796Z,1.73
2023-03-28T18:13:57.966Z,1.69
2023-03-28T18:16:26.807Z,1.66
2023-03-28T18:18:54.764Z,1.61
2023-03-28T18:21:22.283Z,1.59
2023-03-28T18:23:49.874Z,1.56
2023-03-28T18:26:17.507Z,1.53
2023-03-28T18:28:45.299Z,1.50
2023-03-28T18:31:17.868Z,1.46
2023-03-28T18:33:45.574Z,1.41
2023-03-28T18:36:14.158Z,1.40
2023-03-28T18:38:43.863Z,1.36
2023-03-28T18:41:12.803Z,1.33
2023-03-28T18:43:42.452Z,1.27
2023-03-28T18:46:15.485Z,1.22
2023-03-28T18:48:44.876Z,1.18
2023-03-28T18:51:12.596Z,1.09
2023-03-28T18:53:40.089Z,0.99
2023-03-28T18:56:08.945Z,0.93
2023-03-28T18:58:37.484Z,0.90
2023-03-28T19:01:06.448Z,0.89
2023-03-28T19:03:47.117Z,0.84
2023-03-28T19:06:15.979Z,0.82
2023-03-28T19:08:47.681Z,0.82
2023-03-28T19:11:17.136Z,0.83
2023-03-28T19:13:44.666Z,0.82
2023-03-28T19:16:14.568Z,0.80
2023-03-28T19:18:43.961Z,0.78
2023-03-28T19:21:12.410Z,0.78
2023-03-28T19:23:40.494Z,0.78
2023-03-28T19:26:09.861Z,0.77
2023-03-28T19:28:39.234Z,0.73
2023-03-28T19:31:09.711Z,0.73
2023-03-28T19:33:38.458Z,0.68
2023-03-28T19:36:07.081Z,0.64
2023-03-28T19:38:36.459Z,0.60
2023-03-28T19:41:15.177Z,0.58
2023-03-28T19:43:43.735Z,0.61
2023-03-28T19:46:17.864Z,0.60
2023-03-28T19:48:45.491Z,0.60
2023-03-28T19:51:14.245Z,0.58
2023-03-28T19:53:42.674Z,0.56
2023-03-28T19:56:12.143Z,0.54
2023-03-28T19:58:39.966Z,0.55
2023-03-28T20:01:07.580Z,0.50
2023-03-28T20:03:35.505Z,0.51
2023-03-28T20:06:06.321Z,0.50
2023-03-28T20:08:34.649Z,0.50
2023-03-28T20:11:02.730Z,0.49
2023-03-28T20:13:30.584Z,0.47
2023-03-28T20:16:03.234Z,0.46
2023-03-28T20:18:32.654Z,0.41
2023-03-28T20:21:02.414Z,0.38
2023-03-28T20:23:32.698Z,0.36
2023-03-28T20:26:01.798Z,0.33
2023-03-28T20:28:32.622Z,0.31
2023-03-28T20:31:00.558Z,0.29
2023-03-28T20:33:28.277Z,0.28
2023-03-28T20:35:59.190Z,0.27
2023-03-28T20:38:27.589Z,0.29
2023-03-28T20:40:54.998Z,0.29
2023-03-28T20:43:26.746Z,0.31
2023-03-28T20:46:01.732Z,0.30
2023-03-28T20:48:36.823Z,0.31
2023-03-28T20:51:13.967Z,0.33
2023-03-28T20:53:50.579Z,0.36
2023-03-28T20:56:20.061Z,0.38
2023-03-28T20:58:48.259Z,0.37
2023-03-28T21:01:17.573Z,0.38
2023-03-28T21:03:54.857Z,0.41
2023-03-28T21:06:35.487Z,0.40
2023-03-28T21:09:06.887Z,0.39
2023-03-28T21:11:37.189Z,0.38
2023-03-28T21:14:06.415Z,0.35
2023-03-28T21:16:34.695Z,0.34
2023-03-28T21:19:02.852Z,0.36
2023-03-28T21:21:33.296Z,0.38
2023-03-28T21:24:02.265Z,0.38
2023-03-28T21:26:30.374Z,0.40
2023-03-28T21:28:57.950Z,0.41
2023-03-28T21:31:28.673Z,0.39
2023-03-28T21:33:57.694Z,0.39
2023-03-28T21:36:27.269Z,0.32
2023-03-28T21:38:55.852Z,0.30
2023-03-28T21:41:24.218Z,0.28
2023-03-28T21:43:53.862Z,0.30
2023-03-28T21:46:22.516Z,0.28
2023-03-28T21:48:50.116Z,0.26
2023-03-28T21:51:18.064Z,0.27
2023-03-28T21:53:46.328Z,0.27
2023-03-28T21:56:16.445Z,0.29
2023-03-28T21:58:44.296Z,0.32
2023-03-28T22:01:14.204Z,0.34
2023-03-28T22:03:42.180Z,0.33
2023-03-28T22:06:09.853Z,0.36
2023-03-28T22:08:38.019Z,0.36
2023-03-28T22:11:15.357Z,0.34
2023-03-28T22:13:45.042Z,0.31
2023-03-28T22:16:14.349Z,0.30
2023-03-28T22:18:49.738Z,0.27
2023-03-28T22:21:17.796Z,0.28
2023-03-28T22:23:47.556Z,0.26
2023-03-28T22:26:15.996Z,0.23
2023-03-28T22:28:44.305Z,0.23
2023-03-28T22:31:12.533Z,0.23
2023-03-28T22:33:40.109Z,0.23
2023-03-28T22:36:08.200Z,0.22
2023-03-28T22:38:36.808Z,0.21
2023-03-28T22:41:04.797Z,0.20
2023-03-28T22:43:33.845Z,0.22
2023-03-28T22:46:01.562Z,0.18
2023-03-28T22:48:31.975Z,0.19
2023-03-28T22:51:01.651Z,0.20
2023-03-28T22:53:29.463Z,0.25
2023-03-28T22:55:57.774Z,0.28
2023-03-28T22:58:25.766Z,0.29
2023-03-28T23:00:54.966Z,0.31
2023-03-28T23:03:22.578Z,0.32
2023-03-28T23:05:51.807Z,0.36
2023-03-28T23:08:19.419Z,0.41
2023-03-28T23:14:31.244Z,0.48
2023-03-28T23:17:02.278Z,0.49
2023-03-28T23:19:32.114Z,0.51
2023-03-28T23:22:00.153Z,0.49
2023-03-28T23:24:27.811Z,0.54
2023-03-28T23:26:56.624Z,0.59
2023-03-28T23:29:24.472Z,0.59
2023-03-28T23:31:51.969Z,0.60
2023-03-28T23:34:19.511Z,0.59
2023-03-28T23:36:47.317Z,0.59
2023-03-28T23:39:14.785Z,0.63
2023-03-28T23:41:42.286Z,0.67
2023-03-28T23:44:09.758Z,0.73
2023-03-28T23:46:37.321Z,0.83
2023-03-28T23:49:04.747Z,0.89
2023-03-28T23:51:32.489Z,0.93
2023-03-28T23:53:59.953Z,0.94
2023-03-28T23:56:27.950Z,0.93
2023-03-28T23:58:55.339Z,0.93
